createdAt,value
2022-10-18T00:02:08.357Z,98001.16
2022-10-18T00:12:12.058Z,97996.79
2022-10-18T00:22:15.819Z,97989.61
2022-10-18T00:32:19.684Z,97982.13
2022-10-18T00:42:34.809Z,97979.61
2022-10-18T00:52:42.604Z,97973.17
2022-10-18T01:02:47.625Z,97965.94
2022-10-18T01:13:00.156Z,97959.19
2022-10-18T01:23:17.308Z,97948.99
2022-10-18T01:33:29.996Z,97949.77
2022-10-18T01:43:36.163Z,97945.38
2022-10-18T01:53:39.768Z,97934.79
2022-10-18T02:03:46.780Z,97928.05
2022-10-18T02:13:58.458Z,97920.13
2022-10-18T02:24:03.138Z,97911.76
2022-10-18T02:34:31.271Z,97911.67
2022-10-18T02:44:35.558Z,97914.36
2022-10-18T02:54:39.237Z,97909.80
2022-10-18T03:04:42.984Z,97914.16
2022-10-18T03:14:46.577Z,97899.59
2022-10-18T03:24:50.330Z,97896.85
2022-10-18T03:34:53.991Z,97895.77
2022-10-18T03:44:57.758Z,97899.04
2022-10-18T03:55:01.524Z,97894.53
2022-10-18T04:05:05.697Z,97888.66
2022-10-18T04:15:10.043Z,97891.77
2022-10-18T04:25:13.638Z,97895.41
2022-10-18T04:35:17.411Z,97890.55
2022-10-18T04:45:21.186Z,97891.48
2022-10-18T04:55:24.854Z,97895.90
2022-10-18T05:05:43.477Z,97889.14
2022-10-18T05:15:52.749Z,97891.39
2022-10-18T05:26:06.061Z,97888.66
2022-10-18T05:36:11.230Z,97887.91
2022-10-18T05:46:15.812Z,97883.61
2022-10-18T05:56:20.085Z,97888.51
2022-10-18T06:06:23.862Z,97885.73
2022-10-18T06:16:32.225Z,97894.60
2022-10-18T06:26:36.512Z,97903.07
2022-10-18T06:36:40.374Z,97900.01
2022-10-18T06:46:45.893Z,97895.38
2022-10-18T06:56:49.613Z,97893.55
2022-10-18T07:06:55.166Z,97889.70
2022-10-18T07:17:02.209Z,97884.50
2022-10-18T07:27:05.872Z,97880.55
2022-10-18T07:37:11.528Z,97878.55
2022-10-18T07:47:15.858Z,97866.66
2022-10-18T07:57:20.138Z,97863.61
2022-10-18T08:07:23.712Z,97851.55
2022-10-18T08:17:27.391Z,97839.23
2022-10-18T08:27:31.514Z,97831.73
2022-10-18T08:37:35.717Z,97830.65
2022-10-18T08:47:45.349Z,97814.39
2022-10-18T08:57:51.207Z,97805.19
2022-10-18T09:08:19.054Z,97799.09
2022-10-18T09:18:58.651Z,97787.60
2022-10-18T09:29:34.152Z,97778.33
2022-10-18T09:39:39.949Z,97766.34
2022-10-18T09:49:48.393Z,97754.67
2022-10-18T09:59:52.391Z,97746.56
2022-10-18T10:09:59.387Z,97733.19
2022-10-18T10:20:14.085Z,97720.73
2022-10-18T10:30:35.052Z,97705.37
2022-10-18T10:40:50.672Z,97686.39
2022-10-18T10:51:01.819Z,97672.20
2022-10-18T11:01:25.053Z,97651.39
2022-10-18T11:11:35.542Z,97629.41
2022-10-18T11:21:41.448Z,97616.39
2022-10-18T11:32:03.928Z,97604.85
2022-10-18T11:42:26.025Z,97598.27
2022-10-18T11:53:09.183Z,97579.54
2022-10-18T12:04:01.374Z,97566.63
2022-10-18T12:14:14.768Z,97554.41
2022-10-18T12:24:23.708Z,97540.90
2022-10-18T12:34:33.857Z,97527.61
2022-10-18T12:44:37.508Z,97523.98
2022-10-18T12:54:41.249Z,97518.36
2022-10-18T13:04:45.169Z,97508.64
2022-10-18T13:15:12.721Z,97495.30
2022-10-18T13:25:30.778Z,97485.61
2022-10-18T13:35:50.938Z,97479.31
2022-10-18T13:45:56.595Z,97475.08
2022-10-18T13:56:11.239Z,97471.01
2022-10-18T14:06:23.374Z,97460.55
2022-10-18T14:16:41.175Z,97446.52
2022-10-18T14:26:44.849Z,97424.38
2022-10-18T14:36:50.447Z,97412.45
2022-10-18T14:47:10.820Z,97397.98
2022-10-18T14:57:30.454Z,97390.58
2022-10-18T15:07:35.843Z,97382.08
2022-10-18T15:17:41.536Z,97386.05
2022-10-18T15:27:58.771Z,97384.79
2022-10-18T15:38:13.935Z,97391.08
2022-10-18T15:48:36.450Z,97392.20
2022-10-18T15:58:45.934Z,97399.48
2022-10-18T16:08:52.363Z,97408.16
2022-10-18T16:18:57.154Z,97407.13
2022-10-18T16:29:01.795Z,97412.66
2022-10-18T16:39:12.416Z,97424.30
2022-10-18T16:49:23.358Z,97424.94
2022-10-18T16:59:30.037Z,97423.28
2022-10-18T17:09:36.254Z,97423.84
2022-10-18T17:19:39.852Z,97426.46
2022-10-18T17:29:45.388Z,97425.85
2022-10-18T17:39:50.030Z,97433.69
2022-10-18T17:49:55.133Z,97426.59
2022-10-18T18:00:00.730Z,97431.75
2022-10-18T18:10:06.886Z,97438.78
2022-10-18T18:20:13.167Z,97438.05
2022-10-18T18:30:19.250Z,97445.77
2022-10-18T18:40:25.110Z,97447.35
2022-10-18T18:50:31.042Z,97445.77
2022-10-18T19:00:44.391Z,97442.95
2022-10-18T19:10:50.648Z,97447.71
2022-10-18T19:20:55.794Z,97439.98
2022-10-18T19:31:00.589Z,97448.77
2022-10-18T19:41:06.573Z,97456.85
2022-10-18T19:51:17.368Z,97462.25
2022-10-18T20:01:28.414Z,97454.11
2022-10-18T20:11:33.236Z,97451.92
2022-10-18T20:21:37.700Z,97453.05
2022-10-18T20:31:41.551Z,97460.38
2022-10-18T20:41:45.643Z,97462.29
2022-10-18T20:51:49.406Z,97469.64
2022-10-18T21:01:53.143Z,97474.63
2022-10-18T21:11:57.074Z,97465.73
2022-10-18T21:22:04.384Z,97477.15
2022-10-18T21:32:08.666Z,97496.16
2022-10-18T21:42:14.111Z,97500.51
2022-10-18T21:52:18.478Z,97498.28
2022-10-18T22:02:22.737Z,97498.90
2022-10-18T22:12:26.912Z,97513.37
2022-10-18T22:22:31.100Z,97518.05
2022-10-18T22:32:34.862Z,97517.94
2022-10-18T22:42:38.431Z,97517.72
2022-10-18T22:52:41.992Z,97527.11
2022-10-18T23:02:45.758Z,97520.61
2022-10-18T23:12:49.213Z,97524.40
2022-10-18T23:22:52.801Z,97521.02
2022-10-18T23:32:56.670Z,97517.11
2022-10-18T23:43:00.429Z,97529.00
2022-10-18T23:53:04.099Z,97537.81
